Time;durP1;ratioP1;P1;durP2;ratioP2;P2;SDS_P1;SDS_P2;PMS_P1;PMS_P2;Temp;Humidity;BMP_temperature;BMP_pressure;BME280_temperature;BME280_humidity;BME280_pressure;Samples;Min_cycle;Max_cycle;Signal;HPM_P1;HPM_P2
2022/01/22 00:01:57;;;;;;;9.50;6.97;;;2.10;99.90;;;;;;5076719;28;20174;-86
2022/01/22 00:04:23;;;;;;;11.43;6.90;;;2.10;99.90;;;;;;5086599;28;20714;-87
2022/01/22 00:06:51;;;;;;;11.50;6.90;;;2.10;99.90;;;;;;5098070;28;20245;-87
2022/01/22 00:09:17;;;;;;;14.33;7.70;;;2.10;99.90;;;;;;5107185;28;20222;-86
2022/01/22 00:11:52;;;;;;;11.87;7.40;;;2.00;99.90;;;;;;5107365;28;20281;-86
2022/01/22 00:14:24;;;;;;;8.03;6.30;;;2.00;99.90;;;;;;5092554;28;20218;-86
2022/01/22 00:16:57;;;;;;;12.40;7.10;;;2.00;99.90;;;;;;5091484;28;20183;-86
2022/01/22 00:19:24;;;;;;;10.17;6.50;;;1.90;99.90;;;;;;5058136;28;20636;-86
2022/01/22 00:21:50;;;;;;;8.43;6.33;;;2.00;99.90;;;;;;5060457;28;20575;-86
2022/01/22 00:24:17;;;;;;;10.93;6.20;;;1.90;99.90;;;;;;5083650;28;20191;-86
2022/01/22 00:26:44;;;;;;;9.77;6.10;;;2.00;99.90;;;;;;5092360;28;20195;-86
2022/01/22 00:29:11;;;;;;;11.33;5.90;;;1.90;99.90;;;;;;5089331;28;20294;-86
2022/01/22 00:31:39;;;;;;;10.23;6.43;;;2.00;99.90;;;;;;5089378;28;20190;-86
2022/01/22 00:34:08;;;;;;;10.47;6.13;;;2.00;99.90;;;;;;5092762;28;20214;-86
2022/01/22 00:36:35;;;;;;;8.03;5.83;;;2.00;99.90;;;;;;5074306;28;20551;-86
2022/01/22 00:39:00;;;;;;;9.00;6.10;;;2.10;99.90;;;;;;5090624;28;20229;-86
2022/01/22 00:41:26;;;;;;;10.87;6.27;;;2.20;99.90;;;;;;5085249;28;20187;-86
2022/01/22 00:43:53;;;;;;;11.20;6.40;;;2.10;99.90;;;;;;5099997;28;20182;-86
2022/01/22 00:46:20;;;;;;;10.03;7.53;;;2.00;99.90;;;;;;5089621;28;20187;-86
2022/01/22 00:48:46;;;;;;;12.13;7.00;;;1.90;99.90;;;;;;5104668;28;20190;-86
2022/01/22 00:51:11;;;;;;;9.37;6.07;;;2.00;99.90;;;;;;5090881;28;20195;-86
2022/01/22 00:53:37;;;;;;;10.27;6.50;;;2.10;99.90;;;;;;5082837;28;20218;-86
2022/01/22 00:56:03;;;;;;;13.67;6.70;;;2.10;99.90;;;;;;5090174;28;20181;-86
2022/01/22 00:58:29;;;;;;;8.73;6.70;;;2.00;99.90;;;;;;5109908;28;20198;-86
2022/01/22 01:00:54;;;;;;;10.27;6.53;;;2.00;99.90;;;;;;5108670;28;20356;-84
2022/01/22 01:03:20;;;;;;;8.97;6.37;;;2.00;99.90;;;;;;5099347;28;20191;-85
2022/01/22 01:05:46;;;;;;;7.97;6.03;;;2.00;99.90;;;;;;5092405;28;20291;-85
2022/01/22 01:08:12;;;;;;;10.70;7.60;;;2.10;99.90;;;;;;5064282;28;20251;-86
2022/01/22 01:10:37;;;;;;;12.70;7.77;;;2.00;99.90;;;;;;5079281;28;20759;-85
2022/01/22 01:13:04;;;;;;;10.87;7.30;;;2.00;99.90;;;;;;5060939;28;20242;-85
2022/01/22 01:32:07;;;;;;;8.57;7.23;;;1.90;99.90;;;;;;5084676;28;20271;-85
2022/01/22 01:34:25;;;;;;;9.83;7.50;;;1.90;99.90;;;;;;5082489;28;20222;-85
2022/01/22 01:36:51;;;;;;;12.83;8.10;;;1.90;99.90;;;;;;5083865;28;20176;-85
2022/01/22 01:39:26;;;;;;;13.00;7.60;;;2.00;99.90;;;;;;5084296;28;20582;-85
2022/01/22 01:44:20;;;;;;;12.87;8.30;;;2.00;99.90;;;;;;5100105;28;20225;-85
2022/01/22 01:46:49;;;;;;;10.47;7.60;;;1.90;99.90;;;;;;5099802;28;20187;-85
2022/01/22 01:49:16;;;;;;;14.40;8.40;;;1.90;99.90;;;;;;5100183;28;20211;-85
2022/01/22 01:51:42;;;;;;;12.73;8.67;;;1.90;99.90;;;;;;5101091;28;20277;-86
2022/01/22 01:59:39;;;;;;;12.67;8.40;;;2.00;99.90;;;;;;5070872;28;20222;-86
2022/01/22 02:02:05;;;;;;;11.53;8.10;;;2.10;99.90;;;;;;5074134;28;20672;-86
2022/01/22 02:04:31;;;;;;;13.03;8.77;;;2.00;99.90;;;;;;5099049;28;20262;-86
2022/01/22 02:06:57;;;;;;;12.67;8.57;;;2.00;99.90;;;;;;5081288;28;20211;-86
2022/01/22 02:09:24;;;;;;;12.50;8.83;;;2.00;99.90;;;;;;5072952;28;20570;-86
2022/01/22 02:12:01;;;;;;;11.80;8.37;;;2.00;99.90;;;;;;5087993;28;20219;-86
2022/01/22 02:25:27;;;;;;;14.33;8.43;;;2.00;99.90;;;;;;5076353;28;20183;-86
2022/01/22 02:27:53;;;;;;;12.30;9.10;;;2.00;99.90;;;;;;5083777;28;20192;-86
2022/01/22 02:30:23;;;;;;;13.43;9.20;;;2.00;99.90;;;;;;5076433;28;20305;-86
2022/01/22 02:35:58;;;;;;;13.23;8.67;;;2.10;99.90;;;;;;5093084;28;20175;-86
2022/01/22 02:38:42;;;;;;;9.30;8.10;;;2.20;99.90;;;;;;5076715;28;20175;-86
2022/01/22 02:41:13;;;;;;;17.43;9.23;;;2.20;99.90;;;;;;5088954;28;20194;-86
2022/01/22 02:43:39;;;;;;;11.47;8.57;;;2.10;99.90;;;;;;5077589;28;20278;-86
2022/01/22 02:46:04;;;;;;;12.33;8.13;;;2.10;99.90;;;;;;5077291;28;20214;-86
2022/01/22 02:48:30;;;;;;;12.87;9.87;;;2.10;99.90;;;;;;5089603;28;20642;-86
2022/01/22 02:50:56;;;;;;;13.37;8.90;;;2.10;99.90;;;;;;5073722;28;20235;-86
2022/01/22 02:53:22;;;;;;;12.20;8.80;;;2.10;99.90;;;;;;5075462;28;20207;-86
2022/01/22 02:55:47;;;;;;;12.43;8.97;;;2.00;99.90;;;;;;5061107;28;20267;-86
2022/01/22 02:58:15;;;;;;;15.70;9.17;;;2.10;99.90;;;;;;5060837;28;20184;-86
2022/01/22 03:00:41;;;;;;;14.60;8.67;;;2.20;99.90;;;;;;5058890;28;20221;-86
2022/01/22 03:03:07;;;;;;;12.07;9.47;;;2.30;99.90;;;;;;5092025;28;20187;-86
2022/01/22 03:05:33;;;;;;;13.20;8.93;;;2.30;99.90;;;;;;5070530;28;20266;-86
2022/01/22 03:08:04;;;;;;;10.77;8.47;;;2.30;99.90;;;;;;5082267;28;20191;-86
2022/01/22 03:10:30;;;;;;;9.43;8.30;;;2.30;99.90;;;;;;5074538;28;20735;-86
2022/01/22 03:13:22;;;;;;;13.87;8.83;;;2.30;99.90;;;;;;5072462;28;20175;-86
2022/01/22 03:18:22;;;;;;;14.93;8.73;;;2.10;99.90;;;;;;5098520;28;20183;-86
2022/01/22 03:29:03;;;;;;;14.33;8.77;;;2.10;99.90;;;;;;5077099;28;20196;-86
2022/01/22 03:31:28;;;;;;;12.70;8.63;;;2.10;99.90;;;;;;5079941;28;20183;-86
2022/01/22 03:33:54;;;;;;;11.13;8.10;;;2.10;99.90;;;;;;5088006;28;20302;-86
2022/01/22 03:36:20;;;;;;;13.50;9.20;;;2.00;99.90;;;;;;5083176;28;20187;-86
2022/01/22 03:38:47;;;;;;;13.70;8.37;;;2.00;99.90;;;;;;5078060;28;20191;-86
2022/01/22 03:41:13;;;;;;;11.90;8.53;;;2.00;99.90;;;;;;5091498;28;20182;-86
2022/01/22 03:43:39;;;;;;;14.13;8.83;;;2.10;99.90;;;;;;5096152;28;20187;-86
2022/01/22 03:46:05;;;;;;;10.23;8.07;;;2.20;99.90;;;;;;5060733;28;20183;-86
2022/01/22 03:48:31;;;;;;;13.27;8.43;;;2.20;99.90;;;;;;5079358;28;20254;-86
2022/01/22 03:50:56;;;;;;;13.13;8.27;;;2.10;99.90;;;;;;5068021;28;20241;-86
2022/01/22 03:53:22;;;;;;;10.67;8.40;;;2.20;99.90;;;;;;5079661;28;20289;-86
2022/01/22 03:56:23;;;;;;;10.27;8.00;;;2.10;99.90;;;;;;5062869;28;20714;-86
2022/01/22 03:58:42;;;;;;;10.90;8.50;;;2.10;99.90;;;;;;5085700;28;20199;-86
2022/01/22 04:04:01;;;;;;;13.90;8.07;;;2.10;99.90;;;;;;5080861;28;20193;-85
2022/01/22 04:09:07;;;;;;;11.70;8.10;;;2.40;99.90;;;;;;5099740;28;20215;-86
2022/01/22 04:11:36;;;;;;;11.33;8.70;;;2.40;99.90;;;;;;5065039;28;20286;-86
2022/01/22 04:14:04;;;;;;;11.27;8.23;;;2.40;99.90;;;;;;5062909;28;20574;-86
2022/01/22 04:16:31;;;;;;;11.50;8.23;;;2.50;99.90;;;;;;5103903;28;20186;-86
2022/01/22 04:27:15;;;;;;;18.40;9.53;;;2.50;99.90;;;;;;5059727;28;20230;-86
2022/01/22 04:29:41;;;;;;;13.87;9.07;;;2.40;99.90;;;;;;5068288;28;20246;-86
2022/01/22 04:32:07;;;;;;;9.67;8.67;;;2.40;99.90;;;;;;5090630;28;20186;-86
2022/01/22 04:34:33;;;;;;;18.40;9.73;;;2.40;99.90;;;;;;5074262;28;20225;-86
2022/01/22 04:36:59;;;;;;;13.03;8.50;;;2.40;99.90;;;;;;5067832;28;20192;-86
2022/01/22 04:39:26;;;;;;;13.60;9.17;;;2.30;99.90;;;;;;5080366;28;20225;-86
2022/01/22 04:41:55;;;;;;;11.10;8.97;;;2.30;99.90;;;;;;5076244;28;20248;-86
2022/01/22 04:44:23;;;;;;;14.40;9.50;;;2.30;99.90;;;;;;5078032;28;20299;-86
2022/01/22 04:47:01;;;;;;;13.13;9.30;;;2.40;99.90;;;;;;5101121;28;20190;-86
2022/01/22 04:54:59;;;;;;;12.90;9.17;;;2.30;99.90;;;;;;5087956;28;20213;-86
2022/01/22 04:57:30;;;;;;;10.57;8.40;;;2.40;99.90;;;;;;5068863;28;20187;-87
2022/01/22 04:59:55;;;;;;;12.43;8.90;;;2.40;99.90;;;;;;5093191;28;20210;-87
2022/01/22 05:02:21;;;;;;;11.13;9.07;;;2.30;99.90;;;;;;5092698;28;20189;-87
2022/01/22 05:04:48;;;;;;;15.83;10.23;;;2.40;99.90;;;;;;5076307;28;20199;-87
2022/01/22 05:07:13;;;;;;;15.73;9.50;;;2.30;99.90;;;;;;5076717;28;20198;-87
2022/01/22 05:09:39;;;;;;;14.17;9.60;;;2.40;99.90;;;;;;5089601;28;20295;-86
2022/01/22 05:12:06;;;;;;;11.43;9.73;;;2.40;99.90;;;;;;5062434;28;20223;-87
2022/01/22 05:14:32;;;;;;;14.83;9.00;;;2.40;99.90;;;;;;5079851;28;20229;-86
2022/01/22 05:17:00;;;;;;;17.13;9.87;;;2.40;99.90;;;;;;5090421;28;20638;-87
2022/01/22 05:22:20;;;;;;;14.90;9.90;;;2.40;99.90;;;;;;5071620;28;20190;-87
2022/01/22 05:24:51;;;;;;;15.57;9.30;;;2.50;99.90;;;;;;5058499;28;20192;-87
2022/01/22 05:32:58;;;;;;;13.90;8.57;;;2.50;99.90;;;;;;5089943;28;20653;-86
2022/01/22 05:38:08;;;;;;;15.70;9.43;;;2.50;99.90;;;;;;5061419;28;20205;-87
2022/01/22 05:40:35;;;;;;;16.03;10.30;;;2.50;99.90;;;;;;5073054;28;20223;-87
2022/01/22 05:43:00;;;;;;;11.50;10.30;;;2.30;99.90;;;;;;5070504;28;20761;-86
2022/01/22 05:45:26;;;;;;;12.57;9.77;;;2.40;99.90;;;;;;5077396;28;20665;-86
2022/01/22 05:47:52;;;;;;;12.83;10.23;;;2.40;99.90;;;;;;5073974;28;20673;-86
2022/01/22 05:50:32;;;;;;;15.30;10.00;;;2.50;99.90;;;;;;5057613;28;20211;-86
2022/01/22 05:53:08;;;;;;;13.63;9.30;;;2.50;99.90;;;;;;5073505;28;20195;-86
2022/01/22 05:59:35;;;;;;;15.97;10.13;;;2.40;99.90;;;;;;5058933;28;20190;-86
2022/01/22 06:01:12;;;;;;;15.70;9.57;;;2.50;99.90;;;;;;5076904;28;20198;-87
2022/01/22 06:03:38;;;;;;;12.03;9.43;;;2.50;99.90;;;;;;5096325;28;20182;-88
2022/01/22 06:06:04;;;;;;;15.33;9.83;;;2.50;99.90;;;;;;5113058;28;20182;-88
2022/01/22 06:08:33;;;;;;;16.00;10.17;;;2.40;99.90;;;;;;5083732;28;20213;-89
2022/01/22 06:11:07;;;;;;;12.97;9.20;;;2.50;99.90;;;;;;5103878;28;20186;-88
2022/01/22 06:13:44;;;;;;;13.20;9.40;;;2.50;99.90;;;;;;5086637;28;20211;-87
2022/01/22 06:16:14;;;;;;;16.33;10.60;;;2.60;99.90;;;;;;5114353;28;20151;-88
2022/01/22 06:18:40;;;;;;;13.13;9.87;;;2.50;99.90;;;;;;5063362;28;20218;-87
2022/01/22 06:21:08;;;;;;;14.13;10.10;;;2.50;99.90;;;;;;5100898;28;20206;-88
2022/01/22 06:23:35;;;;;;;16.53;10.80;;;2.60;99.90;;;;;;5113905;28;20171;-87
2022/01/22 06:26:03;;;;;;;18.20;11.23;;;2.50;99.90;;;;;;5109856;28;20212;-88
2022/01/22 06:28:29;;;;;;;16.10;10.40;;;2.50;99.90;;;;;;5106954;28;20186;-88
2022/01/22 06:30:55;;;;;;;17.90;10.87;;;2.60;99.90;;;;;;5114164;28;20203;-88
2022/01/22 06:33:21;;;;;;;17.03;11.63;;;2.60;99.90;;;;;;5113840;28;20200;-87
2022/01/22 06:35:47;;;;;;;16.13;10.67;;;2.60;99.90;;;;;;5096425;28;20218;-88
2022/01/22 06:38:13;;;;;;;19.30;11.33;;;2.60;99.90;;;;;;5066001;28;20186;-87
2022/01/22 06:43:05;;;;;;;15.17;11.73;;;2.50;99.90;;;;;;5082690;28;20183;-86
2022/01/22 06:45:31;;;;;;;21.53;12.17;;;2.60;99.90;;;;;;5061628;28;20202;-88
2022/01/22 06:47:57;;;;;;;18.33;11.80;;;2.60;99.90;;;;;;5058374;28;20184;-88
2022/01/22 06:50:23;;;;;;;19.87;12.57;;;2.60;99.90;;;;;;5094975;28;20210;-88
2022/01/22 06:52:57;;;;;;;18.13;11.53;;;2.60;99.90;;;;;;5081197;28;20676;-87
2022/01/22 06:55:35;;;;;;;16.00;11.83;;;2.60;99.90;;;;;;5079915;28;20285;-87
2022/01/22 06:58:00;;;;;;;17.70;11.47;;;2.80;99.90;;;;;;5076146;28;20233;-86
2022/01/22 07:00:26;;;;;;;16.67;12.43;;;2.70;99.90;;;;;;5069345;28;20207;-87
2022/01/22 07:02:52;;;;;;;16.57;11.77;;;2.70;99.90;;;;;;5091490;28;20662;-87
2022/01/22 07:05:17;;;;;;;20.53;11.93;;;2.80;99.90;;;;;;5110030;28;20181;-88
2022/01/22 07:07:43;;;;;;;17.93;11.90;;;2.80;99.90;;;;;;5079304;28;20203;-87
2022/01/22 07:10:09;;;;;;;20.33;12.73;;;2.80;99.90;;;;;;5075949;28;20345;-87
2022/01/22 07:12:35;;;;;;;19.90;12.73;;;2.80;99.90;;;;;;5073401;28;20190;-86
2022/01/22 07:15:03;;;;;;;17.23;12.07;;;2.90;99.90;;;;;;5076560;28;20242;-87
2022/01/22 07:17:34;;;;;;;17.47;13.07;;;3.00;99.90;;;;;;5095505;28;20725;-86
2022/01/22 07:20:00;;;;;;;20.87;13.17;;;2.90;99.90;;;;;;5095874;28;20207;-87
2022/01/22 07:25:10;;;;;;;17.97;12.00;;;3.00;99.90;;;;;;5104318;28;20186;-88
2022/01/22 07:27:36;;;;;;;17.73;12.37;;;3.00;99.90;;;;;;5060454;28;20218;-86
2022/01/22 07:30:02;;;;;;;16.90;12.30;;;3.00;99.90;;;;;;5077346;28;20219;-86
2022/01/22 07:32:35;;;;;;;19.30;12.07;;;3.00;99.90;;;;;;5089931;28;20190;-87
2022/01/22 07:35:02;;;;;;;19.47;12.37;;;3.00;99.90;;;;;;5082662;28;20206;-89
2022/01/22 07:37:28;;;;;;;19.33;12.30;;;3.10;99.90;;;;;;5102675;28;20180;-87
2022/01/22 07:39:54;;;;;;;16.63;12.23;;;3.00;99.90;;;;;;5081237;28;20229;-88
2022/01/22 07:42:19;;;;;;;17.47;12.17;;;3.00;99.90;;;;;;5104943;28;20251;-86
2022/01/22 07:44:45;;;;;;;20.07;12.97;;;3.00;99.90;;;;;;5060969;28;20198;-87
2022/01/22 07:47:11;;;;;;;18.93;12.23;;;3.00;99.90;;;;;;5095685;28;20205;-88
2022/01/22 07:49:37;;;;;;;19.53;12.13;;;3.10;99.90;;;;;;5059237;28;20211;-88
2022/01/22 07:52:03;;;;;;;19.10;12.00;;;3.10;99.90;;;;;;5104709;28;20212;-88
2022/01/22 07:54:31;;;;;;;15.83;11.77;;;3.00;99.90;;;;;;5106588;28;20206;-87
2022/01/22 07:56:57;;;;;;;18.00;12.00;;;3.10;99.90;;;;;;5096326;28;20175;-86
2022/01/22 07:59:23;;;;;;;17.27;12.03;;;3.00;99.90;;;;;;5063873;28;20221;-88
2022/01/22 08:01:48;;;;;;;17.47;11.73;;;3.00;99.90;;;;;;5093275;28;20195;-88
2022/01/22 08:04:17;;;;;;;17.73;12.43;;;3.10;99.90;;;;;;5098521;28;20171;-88
2022/01/22 08:06:43;;;;;;;16.83;11.80;;;3.00;99.90;;;;;;5103972;28;20187;-86
2022/01/22 08:09:09;;;;;;;17.17;11.17;;;3.00;99.90;;;;;;5092766;28;20260;-86
2022/01/22 08:11:36;;;;;;;16.60;12.00;;;3.10;99.90;;;;;;5063509;28;20286;-86
2022/01/22 08:14:01;;;;;;;18.13;11.20;;;3.10;99.90;;;;;;5082465;28;20735;-87
2022/01/22 08:16:27;;;;;;;19.83;12.73;;;3.00;99.90;;;;;;5078050;28;20210;-86
2022/01/22 08:18:53;;;;;;;16.57;11.67;;;3.10;99.90;;;;;;5076546;28;20604;-86
2022/01/22 08:21:18;;;;;;;24.23;12.73;;;3.00;99.90;;;;;;5078812;28;20234;-87
2022/01/22 08:23:44;;;;;;;15.00;11.60;;;3.00;99.90;;;;;;5076685;28;20329;-87
2022/01/22 08:26:11;;;;;;;16.70;11.73;;;3.00;99.90;;;;;;5067950;28;20668;-87
2022/01/22 08:28:58;;;;;;;16.93;11.80;;;3.20;99.90;;;;;;5084438;28;20641;-87
2022/01/22 08:31:39;;;;;;;18.40;11.33;;;3.20;99.90;;;;;;5096479;28;20182;-88
2022/01/22 08:36:51;;;;;;;17.70;10.97;;;3.00;99.90;;;;;;5096723;28;20640;-87
2022/01/22 08:39:18;;;;;;;13.50;10.50;;;3.10;99.90;;;;;;5045463;28;20227;-87
2022/01/22 08:41:44;;;;;;;16.63;10.70;;;3.10;99.90;;;;;;5069317;28;20187;-87
2022/01/22 08:44:11;;;;;;;13.97;9.83;;;3.20;99.90;;;;;;5090216;28;20289;-87
2022/01/22 08:46:37;;;;;;;15.17;11.07;;;3.10;99.90;;;;;;5078605;28;20195;-87
2022/01/22 08:49:08;;;;;;;15.40;11.63;;;3.10;99.90;;;;;;5066169;28;20221;-88
2022/01/22 08:51:34;;;;;;;19.23;10.80;;;3.10;99.90;;;;;;5075386;28;20221;-87
2022/01/22 08:54:01;;;;;;;17.07;11.80;;;3.30;99.90;;;;;;5094577;28;20637;-87
2022/01/22 08:56:30;;;;;;;17.23;10.93;;;3.30;99.90;;;;;;5060853;28;20184;-87
2022/01/22 08:58:56;;;;;;;14.83;10.50;;;3.20;99.90;;;;;;5092414;28;20697;-87
2022/01/22 09:01:23;;;;;;;15.47;10.47;;;3.30;99.90;;;;;;5078941;28;20820;-87
2022/01/22 09:03:50;;;;;;;13.67;10.77;;;3.20;99.90;;;;;;5060504;28;20183;-87
2022/01/22 09:06:17;;;;;;;15.07;11.07;;;3.40;99.90;;;;;;5097421;28;20210;-88
2022/01/22 09:08:45;;;;;;;15.97;10.50;;;3.30;99.90;;;;;;5093548;28;20186;-87
2022/01/22 09:11:11;;;;;;;14.73;10.67;;;3.30;99.90;;;;;;5061755;28;20201;-87
2022/01/22 09:13:37;;;;;;;20.33;11.63;;;3.30;99.90;;;;;;5096876;28;20221;-88
2022/01/22 09:16:03;;;;;;;16.50;10.87;;;3.40;99.90;;;;;;5058126;28;20207;-87
2022/01/22 09:18:29;;;;;;;15.93;10.33;;;3.30;99.90;;;;;;5067020;28;20187;-87
2022/01/22 09:21:02;;;;;;;14.17;10.77;;;3.40;99.90;;;;;;5079650;28;20297;-87
2022/01/22 09:23:29;;;;;;;12.27;9.23;;;3.50;99.90;;;;;;5079169;28;20221;-87
2022/01/22 09:25:56;;;;;;;15.63;9.70;;;3.50;99.90;;;;;;5099210;28;20653;-87
2022/01/22 09:28:22;;;;;;;15.97;10.97;;;3.40;99.90;;;;;;5077863;28;20186;-87
2022/01/22 09:30:48;;;;;;;14.77;10.77;;;3.40;99.90;;;;;;5077899;28;20195;-87
2022/01/22 09:33:14;;;;;;;15.77;9.90;;;3.40;99.90;;;;;;5074705;28;20194;-87
2022/01/22 09:35:40;;;;;;;20.33;10.47;;;3.50;99.90;;;;;;5108210;28;20723;-87
2022/01/22 09:38:06;;;;;;;18.87;11.47;;;3.40;99.90;;;;;;5065014;28;20696;-87
2022/01/22 09:40:32;;;;;;;14.63;10.83;;;3.40;99.90;;;;;;5082843;28;20293;-87
2022/01/22 09:42:59;;;;;;;14.90;10.13;;;3.30;99.90;;;;;;5070792;28;20281;-88
2022/01/22 09:45:30;;;;;;;14.43;10.53;;;3.40;99.90;;;;;;5088244;28;20214;-87
2022/01/22 09:47:58;;;;;;;16.57;9.93;;;3.40;99.90;;;;;;5068795;28;20692;-87
2022/01/22 09:50:25;;;;;;;16.90;10.70;;;3.50;99.90;;;;;;5091326;28;20206;-87
2022/01/22 09:52:52;;;;;;;14.93;10.30;;;3.60;99.90;;;;;;5084724;28;20190;-87
2022/01/22 09:55:18;;;;;;;17.67;11.10;;;3.60;99.90;;;;;;5086552;28;20303;-87
2022/01/22 09:57:45;;;;;;;14.03;10.53;;;3.50;99.90;;;;;;5073668;28;20321;-87
2022/01/22 10:00:13;;;;;;;19.40;10.37;;;3.60;99.90;;;;;;5069488;28;20206;-87
2022/01/22 10:02:47;;;;;;;14.10;10.00;;;3.70;99.90;;;;;;5071144;28;20861;-87
2022/01/22 10:05:32;;;;;;;16.23;10.43;;;3.50;99.90;;;;;;5070179;28;20193;-87
2022/01/22 10:08:31;;;;;;;17.13;9.70;;;3.50;99.90;;;;;;5066983;28;20209;-88
2022/01/22 10:10:58;;;;;;;20.83;11.33;;;3.70;99.90;;;;;;5085695;28;20207;-87
2022/01/22 10:13:44;;;;;;;15.27;10.00;;;3.80;99.90;;;;;;5089315;28;20183;-89
2022/01/22 10:16:19;;;;;;;14.60;9.07;;;3.90;99.90;;;;;;5085610;28;20175;-87
2022/01/22 10:18:46;;;;;;;15.13;10.87;;;3.90;99.90;;;;;;5085506;28;20612;-87
2022/01/22 10:21:15;;;;;;;15.93;10.67;;;3.90;99.90;;;;;;5063581;28;20669;-87
2022/01/22 10:23:41;;;;;;;14.23;9.77;;;3.90;99.90;;;;;;5091840;28;20360;-87
2022/01/22 10:26:12;;;;;;;15.77;10.10;;;4.00;99.90;;;;;;5092534;28;20186;-87
2022/01/22 10:28:46;;;;;;;14.00;9.43;;;3.90;99.90;;;;;;5070298;28;20661;-88
2022/01/22 10:31:22;;;;;;;20.47;11.77;;;3.80;99.90;;;;;;5086021;28;20248;-87
2022/01/22 10:34:10;;;;;;;14.67;10.87;;;3.70;99.90;;;;;;5088144;28;20203;-87
2022/01/22 10:36:37;;;;;;;15.87;10.80;;;3.70;99.90;;;;;;5087071;28;20190;-88
2022/01/22 10:39:09;;;;;;;17.77;11.30;;;3.60;99.90;;;;;;5068442;28;20734;-87
2022/01/22 10:41:41;;;;;;;14.77;11.17;;;3.60;99.90;;;;;;5082803;28;20266;-87
2022/01/22 10:44:10;;;;;;;15.63;11.40;;;3.70;99.90;;;;;;5083846;28;20769;-87
2022/01/22 10:46:50;;;;;;;17.83;10.93;;;3.70;99.90;;;;;;5088688;28;20194;-86
2022/01/22 10:49:19;;;;;;;18.77;10.57;;;3.80;99.90;;;;;;5089519;28;20215;-86
2022/01/22 10:51:48;;;;;;;15.33;10.67;;;3.80;99.90;;;;;;5107010;28;20205;-87
2022/01/22 10:54:15;;;;;;;15.90;11.20;;;3.80;99.90;;;;;;5091777;28;20221;-89
2022/01/22 10:56:41;;;;;;;13.23;10.03;;;3.70;99.90;;;;;;5093033;28;20195;-87
2022/01/22 10:59:12;;;;;;;13.97;10.10;;;3.60;99.90;;;;;;5081383;28;20199;-87
2022/01/22 11:02:01;;;;;;;13.67;11.00;;;3.70;99.90;;;;;;5096264;28;20227;-87
2022/01/22 11:04:40;;;;;;;20.77;11.43;;;3.60;99.90;;;;;;5082046;28;20217;-87
2022/01/22 11:07:16;;;;;;;14.60;10.93;;;3.60;99.90;;;;;;5056428;28;20198;-87
2022/01/22 11:09:42;;;;;;;15.67;10.33;;;3.60;99.90;;;;;;5088223;28;20209;-87
2022/01/22 11:12:08;;;;;;;19.30;9.93;;;3.70;99.90;;;;;;5079160;28;20190;-87
2022/01/22 11:14:37;;;;;;;16.33;9.70;;;3.90;99.90;;;;;;5097148;28;20214;-88
2022/01/22 11:17:05;;;;;;;16.37;10.70;;;3.90;99.90;;;;;;5093567;28;20183;-87
2022/01/22 11:19:35;;;;;;;15.03;11.50;;;3.80;99.90;;;;;;5077145;28;20199;-87
2022/01/22 11:22:09;;;;;;;13.93;10.47;;;3.80;99.90;;;;;;5100348;28;20218;-87
2022/01/22 11:24:39;;;;;;;13.47;10.63;;;4.00;99.90;;;;;;5078568;28;20191;-87
2022/01/22 11:27:07;;;;;;;17.90;11.17;;;4.10;99.90;;;;;;5102339;28;20178;-87
2022/01/22 11:29:46;;;;;;;15.97;12.10;;;3.90;99.90;;;;;;5102683;28;20211;-88
2022/01/22 11:32:13;;;;;;;19.83;11.63;;;3.90;99.90;;;;;;5093888;28;20270;-87
2022/01/22 11:34:41;;;;;;;20.47;12.17;;;3.90;99.90;;;;;;5075278;28;20199;-87
2022/01/22 11:37:48;;;;;;;15.93;11.43;;;4.00;99.90;;;;;;5090488;28;20175;-87
2022/01/22 11:40:20;;;;;;;14.10;11.13;;;4.00;99.90;;;;;;5093029;28;20210;-88
2022/01/22 11:43:07;;;;;;;17.80;11.83;;;4.00;99.90;;;;;;5073107;28;20567;-88
2022/01/22 11:45:52;;;;;;;17.90;10.77;;;4.10;99.90;;;;;;5092599;28;20202;-87
2022/01/22 11:48:26;;;;;;;14.93;11.30;;;4.20;99.90;;;;;;5088381;28;20879;-87
2022/01/22 11:51:22;;;;;;;22.37;11.50;;;4.20;99.90;;;;;;5089027;28;20219;-87
2022/01/22 11:53:55;;;;;;;17.60;11.73;;;4.30;99.90;;;;;;5082485;28;20253;-87
2022/01/22 11:56:25;;;;;;;15.00;11.17;;;4.40;99.90;;;;;;5090022;28;20191;-85
2022/01/22 11:59:00;;;;;;;18.20;11.47;;;4.20;99.90;;;;;;5089951;28;20180;-85
2022/01/22 12:02:02;;;;;;;14.90;11.40;;;4.20;99.90;;;;;;5076704;28;20189;-85
2022/01/22 12:04:25;;;;;;;17.93;11.77;;;4.30;99.90;;;;;;5091317;28;20682;-85
2022/01/22 12:07:03;;;;;;;17.73;11.20;;;4.30;99.90;;;;;;5086829;28;20213;-85
2022/01/22 12:09:40;;;;;;;15.83;11.80;;;4.40;99.90;;;;;;5099412;28;20203;-85
2022/01/22 12:15:23;;;;;;;14.63;11.70;;;4.40;99.90;;;;;;5093879;28;20249;-85
2022/01/22 12:17:55;;;;;;;18.60;12.20;;;4.40;99.90;;;;;;5088681;28;20195;-85
2022/01/22 12:23:05;;;;;;;18.77;12.30;;;4.30;99.90;;;;;;5096327;28;20189;-85
2022/01/22 12:25:31;;;;;;;16.67;12.17;;;4.20;99.90;;;;;;5090847;28;20217;-85
2022/01/22 12:27:58;;;;;;;17.47;12.30;;;4.20;99.90;;;;;;5093208;28;20270;-85
2022/01/22 12:30:43;;;;;;;15.43;12.37;;;4.40;99.90;;;;;;5098294;28;20297;-86
2022/01/22 12:33:14;;;;;;;16.70;12.50;;;4.40;99.90;;;;;;5062288;28;20180;-87
2022/01/22 12:35:43;;;;;;;15.47;12.63;;;4.40;99.90;;;;;;5080703;28;20745;-88
2022/01/22 12:38:20;;;;;;;14.53;12.73;;;4.40;99.90;;;;;;5083776;28;20666;-87
2022/01/22 12:40:50;;;;;;;17.33;11.63;;;4.40;99.90;;;;;;5098474;28;20218;-87
2022/01/22 12:43:25;;;;;;;16.80;12.07;;;4.50;99.90;;;;;;5093385;28;20245;-87
2022/01/22 12:45:57;;;;;;;17.43;12.73;;;4.70;99.90;;;;;;5087749;28;20213;-87
2022/01/22 12:48:35;;;;;;;18.70;12.17;;;4.70;99.90;;;;;;5078863;28;20187;-87
2022/01/22 12:51:08;;;;;;;17.20;12.13;;;4.60;99.90;;;;;;5091976;28;20179;-87
2022/01/22 12:53:35;;;;;;;17.80;12.77;;;4.60;99.90;;;;;;5093601;28;20197;-87
2022/01/22 12:56:34;;;;;;;18.37;13.20;;;4.60;99.90;;;;;;5114152;28;20239;-87
2022/01/22 12:58:48;;;;;;;20.67;13.23;;;4.50;99.90;;;;;;5114457;28;20818;-87
2022/01/22 13:01:24;;;;;;;17.50;12.50;;;4.40;99.90;;;;;;5094352;28;20389;-87
2022/01/22 13:03:52;;;;;;;20.23;12.87;;;4.50;99.90;;;;;;5094155;28;20222;-87
2022/01/22 13:06:21;;;;;;;17.73;12.07;;;4.50;99.90;;;;;;5077972;28;20191;-88
2022/01/22 13:08:46;;;;;;;18.40;12.97;;;4.40;99.90;;;;;;5087176;28;20205;-87
2022/01/22 13:11:18;;;;;;;17.10;12.57;;;4.50;99.90;;;;;;5098475;28;20183;-88
2022/01/22 13:13:46;;;;;;;17.60;12.23;;;4.50;99.90;;;;;;5102664;28;20394;-87
2022/01/22 13:16:16;;;;;;;18.13;13.00;;;4.70;99.90;;;;;;5085408;28;20183;-87
2022/01/22 13:18:49;;;;;;;16.43;12.80;;;4.80;99.90;;;;;;5077955;28;20183;-87
2022/01/22 13:21:17;;;;;;;16.60;11.90;;;4.80;99.90;;;;;;5073936;28;20219;-87
2022/01/22 13:23:46;;;;;;;19.63;13.37;;;4.80;99.90;;;;;;5074365;28;20248;-87
2022/01/22 13:26:13;;;;;;;18.67;13.20;;;4.60;99.90;;;;;;5057317;28;20746;-87
2022/01/22 13:28:39;;;;;;;16.83;12.23;;;4.60;99.90;;;;;;5091611;28;20269;-87
2022/01/22 13:31:17;;;;;;;18.50;11.97;;;4.60;99.90;;;;;;5082334;28;20223;-87
2022/01/22 13:33:59;;;;;;;15.37;12.97;;;4.60;99.90;;;;;;5077642;28;20242;-87
2022/01/22 13:36:52;;;;;;;18.03;12.00;;;4.70;99.90;;;;;;5094760;28;20627;-87
2022/01/22 13:49:52;;;;;;;14.77;11.77;;;4.70;99.90;;;;;;5114503;28;20202;-88
2022/01/22 13:52:21;;;;;;;17.10;12.47;;;4.90;99.90;;;;;;5102563;28;20228;-87
2022/01/22 13:54:53;;;;;;;13.13;11.13;;;4.90;99.90;;;;;;5074907;28;20275;-87
2022/01/22 13:57:21;;;;;;;17.63;12.47;;;4.90;99.90;;;;;;5075358;28;20776;-87
2022/01/22 13:59:48;;;;;;;17.20;12.07;;;4.70;99.90;;;;;;5078697;28;20207;-87
2022/01/22 14:02:51;;;;;;;18.63;12.37;;;4.60;99.90;;;;;;5074481;28;20183;-87
2022/01/22 14:05:17;;;;;;;15.77;12.23;;;4.60;99.90;;;;;;5094441;28;20186;-88
2022/01/22 14:07:48;;;;;;;15.63;12.73;;;4.70;99.90;;;;;;5093404;28;20355;-88
2022/01/22 14:10:20;;;;;;;17.33;12.27;;;4.60;99.90;;;;;;5114434;28;20263;-88
2022/01/22 14:12:48;;;;;;;18.17;12.20;;;4.60;99.90;;;;;;5113177;28;20163;-87
2022/01/22 14:15:27;;;;;;;21.50;12.97;;;4.80;99.90;;;;;;5100420;28;20282;-87
2022/01/22 14:20:39;;;;;;;21.20;13.03;;;4.60;99.90;;;;;;5091664;28;20248;-87
2022/01/22 14:23:19;;;;;;;15.33;12.40;;;4.60;99.90;;;;;;5091887;28;20175;-87
2022/01/22 14:26:01;;;;;;;20.77;12.47;;;4.60;99.90;;;;;;5091864;28;20170;-86
2022/01/22 14:28:46;;;;;;;19.37;13.23;;;4.60;99.90;;;;;;5070793;28;20183;-87
2022/01/22 14:31:20;;;;;;;16.50;11.80;;;4.70;99.90;;;;;;5079059;28;20195;-86
2022/01/22 14:33:47;;;;;;;17.50;12.17;;;4.80;99.90;;;;;;5084027;28;20278;-86
2022/01/22 14:36:19;;;;;;;16.73;12.63;;;4.80;99.90;;;;;;5103589;28;20206;-87
2022/01/22 14:38:53;;;;;;;13.77;11.93;;;4.80;99.90;;;;;;5090432;28;20199;-87
2022/01/22 14:44:38;;;;;;;16.13;13.07;;;4.80;99.90;;;;;;5078402;28;20279;-87
2022/01/22 14:47:09;;;;;;;14.90;12.13;;;4.80;99.90;;;;;;5088364;28;20206;-87